sensor_id;sensor_type;location;lat;lon;timestamp;temperature;humidity
78475;SHT31;67766;51.964;5.660;2023-05-02T00:02:24;17.5;53.4
78475;SHT31;67766;51.964;5.660;2023-05-02T00:04:53;17.5;53.5
78475;SHT31;67766;51.964;5.660;2023-05-02T00:07:24;17.5;53.6
78475;SHT31;67766;51.964;5.660;2023-05-02T00:09:54;17.4;53.6
78475;SHT31;67766;51.964;5.660;2023-05-02T00:12:23;17.4;53.5
78475;SHT31;67766;51.964;5.660;2023-05-02T00:14:55;17.4;53.5
78475;SHT31;67766;51.964;5.660;2023-05-02T00:17:24;17.4;53.3
78475;SHT31;67766;51.964;5.660;2023-05-02T00:19:54;17.4;53.5
78475;SHT31;67766;51.964;5.660;2023-05-02T00:22:24;17.4;53.6
78475;SHT31;67766;51.964;5.660;2023-05-02T00:24:57;17.4;53.6
78475;SHT31;67766;51.964;5.660;2023-05-02T00:27:28;17.3;53.7
78475;SHT31;67766;51.964;5.660;2023-05-02T00:29:58;17.3;53.7
78475;SHT31;67766;51.964;5.660;2023-05-02T00:32:30;17.3;53.6
78475;SHT31;67766;51.964;5.660;2023-05-02T00:35:00;17.3;53.9
78475;SHT31;67766;51.964;5.660;2023-05-02T00:37:31;17.3;53.9
78475;SHT31;67766;51.964;5.660;2023-05-02T00:40:02;17.3;54.0
78475;SHT31;67766;51.964;5.660;2023-05-02T00:42:34;17.2;53.9
78475;SHT31;67766;51.964;5.660;2023-05-02T00:45:04;17.2;54.0
78475;SHT31;67766;51.964;5.660;2023-05-02T00:47:34;17.2;54.1
78475;SHT31;67766;51.964;5.660;2023-05-02T00:50:04;17.2;54.0
78475;SHT31;67766;51.964;5.660;2023-05-02T00:52:36;17.2;54.0
78475;SHT31;67766;51.964;5.660;2023-05-02T00:55:09;17.2;54.1
78475;SHT31;67766;51.964;5.660;2023-05-02T00:57:40;17.2;54.1
78475;SHT31;67766;51.964;5.660;2023-05-02T01:00:11;17.2;54.3
78475;SHT31;67766;51.964;5.660;2023-05-02T01:02:52;17.2;54.1
78475;SHT31;67766;51.964;5.660;2023-05-02T01:05:27;17.2;54.2
78475;SHT31;67766;51.964;5.660;2023-05-02T01:08:09;17.2;54.3
78475;SHT31;67766;51.964;5.660;2023-05-02T01:10:51;17.2;54.2
78475;SHT31;67766;51.964;5.660;2023-05-02T01:13:28;17.1;54.3
78475;SHT31;67766;51.964;5.660;2023-05-02T01:15:59;17.1;54.3
78475;SHT31;67766;51.964;5.660;2023-05-02T01:18:34;17.1;54.3
78475;SHT31;67766;51.964;5.660;2023-05-02T01:21:08;17.1;54.3
78475;SHT31;67766;51.964;5.660;2023-05-02T01:23:45;17.1;54.4
78475;SHT31;67766;51.964;5.660;2023-05-02T01:26:26;17.1;54.6
78475;SHT31;67766;51.964;5.660;2023-05-02T01:29:00;17.2;54.5
78475;SHT31;67766;51.964;5.660;2023-05-02T01:31:34;17.2;54.4
78475;SHT31;67766;51.964;5.660;2023-05-02T01:34:08;17.3;54.5
78475;SHT31;67766;51.964;5.660;2023-05-02T01:36:42;17.4;54.2
78475;SHT31;67766;51.964;5.660;2023-05-02T01:39:18;17.4;54.0
78475;SHT31;67766;51.964;5.660;2023-05-02T01:41:51;17.4;54.0
78475;SHT31;67766;51.964;5.660;2023-05-02T01:44:23;17.4;54.1
78475;SHT31;67766;51.964;5.660;2023-05-02T01:46:54;17.4;54.2
78475;SHT31;67766;51.964;5.660;2023-05-02T01:49:26;17.3;54.4
78475;SHT31;67766;51.964;5.660;2023-05-02T01:52:02;17.3;54.6
78475;SHT31;67766;51.964;5.660;2023-05-02T01:54:35;17.3;54.9
78475;SHT31;67766;51.964;5.660;2023-05-02T01:57:07;17.3;55.2
78475;SHT31;67766;51.964;5.660;2023-05-02T01:59:40;17.3;55.3
78475;SHT31;67766;51.964;5.660;2023-05-02T02:02:13;17.3;55.3
78475;SHT31;67766;51.964;5.660;2023-05-02T02:04:46;17.2;55.4
78475;SHT31;67766;51.964;5.660;2023-05-02T02:07:17;17.2;55.4
78475;SHT31;67766;51.964;5.660;2023-05-02T02:09:47;17.2;55.6
78475;SHT31;67766;51.964;5.660;2023-05-02T02:12:25;17.1;55.7
78475;SHT31;67766;51.964;5.660;2023-05-02T02:15:02;17.1;55.7
78475;SHT31;67766;51.964;5.660;2023-05-02T02:17:37;17.0;55.6
78475;SHT31;67766;51.964;5.660;2023-05-02T02:20:10;16.9;55.4
78475;SHT31;67766;51.964;5.660;2023-05-02T02:22:44;16.9;55.3
78475;SHT31;67766;51.964;5.660;2023-05-02T02:25:18;16.8;55.0
78475;SHT31;67766;51.964;5.660;2023-05-02T02:27:48;16.8;54.5
78475;SHT31;67766;51.964;5.660;2023-05-02T02:30:18;16.7;54.5
78475;SHT31;67766;51.964;5.660;2023-05-02T02:32:48;16.6;54.6
78475;SHT31;67766;51.964;5.660;2023-05-02T02:35:19;16.6;54.5
78475;SHT31;67766;51.964;5.660;2023-05-02T02:37:56;16.5;54.5
78475;SHT31;67766;51.964;5.660;2023-05-02T02:40:31;16.4;54.6
78475;SHT31;67766;51.964;5.660;2023-05-02T02:43:09;16.4;54.4
78475;SHT31;67766;51.964;5.660;2023-05-02T02:45:50;16.3;54.7
78475;SHT31;67766;51.964;5.660;2023-05-02T02:48:32;16.3;54.6
78475;SHT31;67766;51.964;5.660;2023-05-02T02:51:09;16.2;54.4
78475;SHT31;67766;51.964;5.660;2023-05-02T02:53:49;16.2;54.5
78475;SHT31;67766;51.964;5.660;2023-05-02T02:56:26;16.2;54.7
78475;SHT31;67766;51.964;5.660;2023-05-02T02:59:05;16.2;54.2
78475;SHT31;67766;51.964;5.660;2023-05-02T03:01:42;16.2;53.7
78475;SHT31;67766;51.964;5.660;2023-05-02T03:04:20;16.1;53.4
78475;SHT31;67766;51.964;5.660;2023-05-02T03:06:50;16.1;53.7
78475;SHT31;67766;51.964;5.660;2023-05-02T03:09:20;16.1;53.6
78475;SHT31;67766;51.964;5.660;2023-05-02T03:11:49;16.0;53.3
78475;SHT31;67766;51.964;5.660;2023-05-02T03:14:19;16.0;53.5
78475;SHT31;67766;51.964;5.660;2023-05-02T03:16:49;16.0;53.3
78475;SHT31;67766;51.964;5.660;2023-05-02T03:19:19;15.9;53.5
78475;SHT31;67766;51.964;5.660;2023-05-02T03:21:51;15.9;53.5
78475;SHT31;67766;51.964;5.660;2023-05-02T03:24:20;15.9;53.6
78475;SHT31;67766;51.964;5.660;2023-05-02T03:26:53;15.8;53.4
78475;SHT31;67766;51.964;5.660;2023-05-02T03:29:23;15.8;53.5
78475;SHT31;67766;51.964;5.660;2023-05-02T03:31:53;15.8;53.7
78475;SHT31;67766;51.964;5.660;2023-05-02T03:34:22;15.8;53.6
78475;SHT31;67766;51.964;5.660;2023-05-02T03:36:52;15.8;53.5
78475;SHT31;67766;51.964;5.660;2023-05-02T03:39:22;15.8;53.3
78475;SHT31;67766;51.964;5.660;2023-05-02T03:41:51;15.8;53.0
78475;SHT31;67766;51.964;5.660;2023-05-02T03:44:21;15.8;52.7
78475;SHT31;67766;51.964;5.660;2023-05-02T03:46:51;15.8;52.4
78475;SHT31;67766;51.964;5.660;2023-05-02T03:49:20;15.8;52.3
78475;SHT31;67766;51.964;5.660;2023-05-02T03:51:50;15.8;52.2
78475;SHT31;67766;51.964;5.660;2023-05-02T03:54:19;15.8;52.0
78475;SHT31;67766;51.964;5.660;2023-05-02T03:56:49;15.8;51.7
78475;SHT31;67766;51.964;5.660;2023-05-02T03:59:19;15.8;51.9
78475;SHT31;67766;51.964;5.660;2023-05-02T04:01:49;15.8;52.1
78475;SHT31;67766;51.964;5.660;2023-05-02T04:04:19;15.8;52.1
78475;SHT31;67766;51.964;5.660;2023-05-02T04:06:49;15.8;52.0
78475;SHT31;67766;51.964;5.660;2023-05-02T04:09:19;15.7;51.8
78475;SHT31;67766;51.964;5.660;2023-05-02T04:11:51;15.7;51.7
78475;SHT31;67766;51.964;5.660;2023-05-02T04:14:21;15.7;51.7
78475;SHT31;67766;51.964;5.660;2023-05-02T04:16:51;15.7;51.7
78475;SHT31;67766;51.964;5.660;2023-05-02T04:19:21;15.7;51.9
78475;SHT31;67766;51.964;5.660;2023-05-02T04:21:51;15.7;51.4
78475;SHT31;67766;51.964;5.660;2023-05-02T04:24:22;15.7;51.4
78475;SHT31;67766;51.964;5.660;2023-05-02T04:26:52;15.7;51.6
78475;SHT31;67766;51.964;5.660;2023-05-02T04:29:23;15.7;51.7
78475;SHT31;67766;51.964;5.660;2023-05-02T04:31:53;15.6;51.4
78475;SHT31;67766;51.964;5.660;2023-05-02T04:34:23;15.6;51.5
78475;SHT31;67766;51.964;5.660;2023-05-02T04:36:54;15.6;51.9
78475;SHT31;67766;51.964;5.660;2023-05-02T04:39:24;15.6;51.8
78475;SHT31;67766;51.964;5.660;2023-05-02T04:41:54;15.6;51.7
78475;SHT31;67766;51.964;5.660;2023-05-02T04:44:23;15.6;51.8
78475;SHT31;67766;51.964;5.660;2023-05-02T04:46:53;15.5;51.3
78475;SHT31;67766;51.964;5.660;2023-05-02T04:49:23;15.5;51.8
78475;SHT31;67766;51.964;5.660;2023-05-02T04:51:55;15.5;51.8
78475;SHT31;67766;51.964;5.660;2023-05-02T04:54:25;15.4;51.8
78475;SHT31;67766;51.964;5.660;2023-05-02T04:56:54;15.4;51.6
78475;SHT31;67766;51.964;5.660;2023-05-02T04:59:25;15.4;51.8
78475;SHT31;67766;51.964;5.660;2023-05-02T05:01:55;15.4;51.8
78475;SHT31;67766;51.964;5.660;2023-05-02T05:04:27;15.4;51.8
78475;SHT31;67766;51.964;5.660;2023-05-02T05:06:57;15.4;51.9
78475;SHT31;67766;51.964;5.660;2023-05-02T05:09:29;15.4;52.3
78475;SHT31;67766;51.964;5.660;2023-05-02T05:11:59;15.4;52.2
78475;SHT31;67766;51.964;5.660;2023-05-02T05:14:28;15.4;51.8
78475;SHT31;67766;51.964;5.660;2023-05-02T05:16:58;15.4;52.0
78475;SHT31;67766;51.964;5.660;2023-05-02T05:19:28;15.3;50.9
78475;SHT31;67766;51.964;5.660;2023-05-02T05:21:58;15.3;50.5
78475;SHT31;67766;51.964;5.660;2023-05-02T05:24:27;15.3;50.7
78475;SHT31;67766;51.964;5.660;2023-05-02T05:26:57;15.3;50.7
78475;SHT31;67766;51.964;5.660;2023-05-02T05:29:27;15.3;50.3
78475;SHT31;67766;51.964;5.660;2023-05-02T05:31:57;15.3;49.0
78475;SHT31;67766;51.964;5.660;2023-05-02T05:34:26;15.3;48.4
78475;SHT31;67766;51.964;5.660;2023-05-02T05:36:56;15.2;48.6
78475;SHT31;67766;51.964;5.660;2023-05-02T05:39:26;15.1;48.6
78475;SHT31;67766;51.964;5.660;2023-05-02T05:41:55;15.0;47.6
78475;SHT31;67766;51.964;5.660;2023-05-02T05:44:25;14.9;47.0
78475;SHT31;67766;51.964;5.660;2023-05-02T05:46:55;14.9;46.7
78475;SHT31;67766;51.964;5.660;2023-05-02T05:49:25;14.8;47.0
78475;SHT31;67766;51.964;5.660;2023-05-02T05:51:54;14.7;47.2
78475;SHT31;67766;51.964;5.660;2023-05-02T05:54:24;14.7;47.4
78475;SHT31;67766;51.964;5.660;2023-05-02T05:56:53;14.6;47.2
78475;SHT31;67766;51.964;5.660;2023-05-02T05:59:25;14.6;47.8
78475;SHT31;67766;51.964;5.660;2023-05-02T06:01:55;14.6;47.7
78475;SHT31;67766;51.964;5.660;2023-05-02T06:04:25;14.6;47.5
78475;SHT31;67766;51.964;5.660;2023-05-02T06:06:55;14.5;47.9
78475;SHT31;67766;51.964;5.660;2023-05-02T06:09:25;14.5;48.1
78475;SHT31;67766;51.964;5.660;2023-05-02T06:11:54;14.5;48.7
78475;SHT31;67766;51.964;5.660;2023-05-02T06:14:26;14.4;48.8
78475;SHT31;67766;51.964;5.660;2023-05-02T06:16:57;14.4;48.9
78475;SHT31;67766;51.964;5.660;2023-05-02T06:19:27;14.4;49.1
78475;SHT31;67766;51.964;5.660;2023-05-02T06:21:57;14.4;49.5
78475;SHT31;67766;51.964;5.660;2023-05-02T06:24:27;14.3;49.8
78475;SHT31;67766;51.964;5.660;2023-05-02T06:26:57;14.3;50.2
78475;SHT31;67766;51.964;5.660;2023-05-02T06:29:27;14.3;50.2
78475;SHT31;67766;51.964;5.660;2023-05-02T06:31:57;14.4;49.8
78475;SHT31;67766;51.964;5.660;2023-05-02T06:34:26;14.4;49.3
78475;SHT31;67766;51.964;5.660;2023-05-02T06:36:56;14.4;49.2
78475;SHT31;67766;51.964;5.660;2023-05-02T06:39:26;14.4;49.4
78475;SHT31;67766;51.964;5.660;2023-05-02T06:41:57;14.4;48.8
78475;SHT31;67766;51.964;5.660;2023-05-02T06:44:28;14.4;48.4
78475;SHT31;67766;51.964;5.660;2023-05-02T06:46:58;14.4;48.4
78475;SHT31;67766;51.964;5.660;2023-05-02T06:49:27;14.4;48.5
78475;SHT31;67766;51.964;5.660;2023-05-02T06:51:57;14.4;47.3
78475;SHT31;67766;51.964;5.660;2023-05-02T06:54:27;14.5;47.1
78475;SHT31;67766;51.964;5.660;2023-05-02T06:56:56;14.5;47.1
78475;SHT31;67766;51.964;5.660;2023-05-02T06:59:26;14.5;46.5
78475;SHT31;67766;51.964;5.660;2023-05-02T07:01:56;14.5;46.2
78475;SHT31;67766;51.964;5.660;2023-05-02T07:04:25;14.5;46.2
78475;SHT31;67766;51.964;5.660;2023-05-02T07:06:55;14.5;45.2
78475;SHT31;67766;51.964;5.660;2023-05-02T07:09:26;14.6;45.0
78475;SHT31;67766;51.964;5.660;2023-05-02T07:11:56;14.6;45.0
78475;SHT31;67766;51.964;5.660;2023-05-02T07:14:25;14.6;44.8
78475;SHT31;67766;51.964;5.660;2023-05-02T07:16:55;14.6;44.9
78475;SHT31;67766;51.964;5.660;2023-05-02T07:19:24;14.7;44.8
78475;SHT31;67766;51.964;5.660;2023-05-02T07:21:54;14.7;44.7
78475;SHT31;67766;51.964;5.660;2023-05-02T07:24:24;14.7;44.9
78475;SHT31;67766;51.964;5.660;2023-05-02T07:26:54;14.7;44.6
78475;SHT31;67766;51.964;5.660;2023-05-02T07:29:24;14.8;44.6
78475;SHT31;67766;51.964;5.660;2023-05-02T07:31:54;14.8;44.3
78475;SHT31;67766;51.964;5.660;2023-05-02T07:34:23;14.9;44.4
78475;SHT31;67766;51.964;5.660;2023-05-02T07:36:53;14.9;43.8
78475;SHT31;67766;51.964;5.660;2023-05-02T07:39:23;14.9;43.8
78475;SHT31;67766;51.964;5.660;2023-05-02T07:41:53;14.9;43.7
78475;SHT31;67766;51.964;5.660;2023-05-02T07:44:25;14.9;43.5
78475;SHT31;67766;51.964;5.660;2023-05-02T07:46:55;14.9;43.7
78475;SHT31;67766;51.964;5.660;2023-05-02T07:49:24;14.8;44.2
78475;SHT31;67766;51.964;5.660;2023-05-02T07:51:54;14.8;44.2
78475;SHT31;67766;51.964;5.660;2023-05-02T07:54:24;14.8;44.6
78475;SHT31;67766;51.964;5.660;2023-05-02T07:56:54;14.8;45.0
78475;SHT31;67766;51.964;5.660;2023-05-02T07:59:28;14.7;45.5
78475;SHT31;67766;51.964;5.660;2023-05-02T08:01:58;14.7;45.7
78475;SHT31;67766;51.964;5.660;2023-05-02T08:04:29;14.7;46.0
78475;SHT31;67766;51.964;5.660;2023-05-02T08:06:58;14.7;46.2
78475;SHT31;67766;51.964;5.660;2023-05-02T08:09:29;14.7;46.3
78475;SHT31;67766;51.964;5.660;2023-05-02T08:11:59;14.7;46.6
78475;SHT31;67766;51.964;5.660;2023-05-02T08:14:30;14.7;46.6
78475;SHT31;67766;51.964;5.660;2023-05-02T08:17:00;14.7;47.0
78475;SHT31;67766;51.964;5.660;2023-05-02T08:19:29;14.8;46.3
78475;SHT31;67766;51.964;5.660;2023-05-02T08:21:59;14.8;46.2
78475;SHT31;67766;51.964;5.660;2023-05-02T08:24:28;14.9;46.0
78475;SHT31;67766;51.964;5.660;2023-05-02T08:26:58;15.0;45.3
78475;SHT31;67766;51.964;5.660;2023-05-02T08:29:30;15.2;44.5
78475;SHT31;67766;51.964;5.660;2023-05-02T08:31:59;15.3;44.5
78475;SHT31;67766;51.964;5.660;2023-05-02T08:34:29;15.4;44.2
78475;SHT31;67766;51.964;5.660;2023-05-02T08:37:00;15.5;43.0
78475;SHT31;67766;51.964;5.660;2023-05-02T08:39:31;15.7;42.0
78475;SHT31;67766;51.964;5.660;2023-05-02T08:42:05;15.8;41.2
78475;SHT31;67766;51.964;5.660;2023-05-02T08:44:34;15.9;41.1
78475;SHT31;67766;51.964;5.660;2023-05-02T08:47:09;16.2;41.7
78475;SHT31;67766;51.964;5.660;2023-05-02T08:49:42;16.5;39.5
78475;SHT31;67766;51.964;5.660;2023-05-02T08:52:13;16.7;37.9
78475;SHT31;67766;51.964;5.660;2023-05-02T08:54:44;16.9;38.0
78475;SHT31;67766;51.964;5.660;2023-05-02T08:57:14;17.0;37.2
78475;SHT31;67766;51.964;5.660;2023-05-02T08:59:43;17.0;36.9
78475;SHT31;67766;51.964;5.660;2023-05-02T09:02:22;17.1;36.4
78475;SHT31;67766;51.964;5.660;2023-05-02T09:05:02;17.1;36.5
78475;SHT31;67766;51.964;5.660;2023-05-02T09:07:43;17.1;36.9
78475;SHT31;67766;51.964;5.660;2023-05-02T09:10:14;17.1;37.4
78475;SHT31;67766;51.964;5.660;2023-05-02T09:12:44;17.1;36.8
78475;SHT31;67766;51.964;5.660;2023-05-02T09:15:15;17.1;36.7
78475;SHT31;67766;51.964;5.660;2023-05-02T09:17:47;17.1;36.9
78475;SHT31;67766;51.964;5.660;2023-05-02T09:20:17;17.1;37.0
78475;SHT31;67766;51.964;5.660;2023-05-02T09:22:51;17.1;36.8
78475;SHT31;67766;51.964;5.660;2023-05-02T09:25:21;17.1;36.8
78475;SHT31;67766;51.964;5.660;2023-05-02T09:27:53;17.0;36.6
78475;SHT31;67766;51.964;5.660;2023-05-02T09:30:25;17.0;37.9
78475;SHT31;67766;51.964;5.660;2023-05-02T09:32:55;17.0;37.7
78475;SHT31;67766;51.964;5.660;2023-05-02T09:35:26;16.9;36.4
78475;SHT31;67766;51.964;5.660;2023-05-02T09:37:57;17.0;35.7
78475;SHT31;67766;51.964;5.660;2023-05-02T09:40:28;17.0;36.1
78475;SHT31;67766;51.964;5.660;2023-05-02T09:42:59;17.0;35.5
78475;SHT31;67766;51.964;5.660;2023-05-02T09:45:33;17.0;34.5
78475;SHT31;67766;51.964;5.660;2023-05-02T09:48:03;17.0;35.2
78475;SHT31;67766;51.964;5.660;2023-05-02T09:50:34;17.1;35.3
78475;SHT31;67766;51.964;5.660;2023-05-02T09:53:06;17.2;34.6
78475;SHT31;67766;51.964;5.660;2023-05-02T09:55:37;17.2;33.3
78475;SHT31;67766;51.964;5.660;2023-05-02T09:58:21;17.3;33.1
78475;SHT31;67766;51.964;5.660;2023-05-02T10:00:52;17.3;33.8
78475;SHT31;67766;51.964;5.660;2023-05-02T10:03:24;17.3;32.8
78475;SHT31;67766;51.964;5.660;2023-05-02T10:05:55;17.4;33.8
78475;SHT31;67766;51.964;5.660;2023-05-02T10:08:27;17.5;33.7
78475;SHT31;67766;51.964;5.660;2023-05-02T10:10:58;17.6;33.0
78475;SHT31;67766;51.964;5.660;2023-05-02T10:13:31;17.7;32.0
78475;SHT31;67766;51.964;5.660;2023-05-02T10:16:03;17.8;32.0
78475;SHT31;67766;51.964;5.660;2023-05-02T10:18:39;17.8;32.6
78475;SHT31;67766;51.964;5.660;2023-05-02T10:21:15;17.9;32.5
78475;SHT31;67766;51.964;5.660;2023-05-02T10:23:45;17.9;33.6
78475;SHT31;67766;51.964;5.660;2023-05-02T10:26:16;18.0;33.4
78475;SHT31;67766;51.964;5.660;2023-05-02T10:28:48;18.2;34.2
78475;SHT31;67766;51.964;5.660;2023-05-02T10:31:20;18.5;33.2
78475;SHT31;67766;51.964;5.660;2023-05-02T10:33:51;18.9;32.8
78475;SHT31;67766;51.964;5.660;2023-05-02T10:36:23;19.3;30.9
78475;SHT31;67766;51.964;5.660;2023-05-02T10:38:56;19.5;29.8
78475;SHT31;67766;51.964;5.660;2023-05-02T10:41:29;19.6;29.7
78475;SHT31;67766;51.964;5.660;2023-05-02T10:44:00;19.6;31.0
78475;SHT31;67766;51.964;5.660;2023-05-02T10:46:35;19.7;30.6
78475;SHT31;67766;51.964;5.660;2023-05-02T10:49:08;19.8;31.3
78475;SHT31;67766;51.964;5.660;2023-05-02T10:51:39;19.9;31.3
78475;SHT31;67766;51.964;5.660;2023-05-02T10:54:23;20.0;30.4
78475;SHT31;67766;51.964;5.660;2023-05-02T10:57:03;20.1;29.2
78475;SHT31;67766;51.964;5.660;2023-05-02T10:59:35;20.3;28.6
78475;SHT31;67766;51.964;5.660;2023-05-02T11:02:47;20.3;29.9
78475;SHT31;67766;51.964;5.660;2023-05-02T11:05:18;20.4;30.2
78475;SHT31;67766;51.964;5.660;2023-05-02T11:07:49;20.4;29.9
78475;SHT31;67766;51.964;5.660;2023-05-02T11:10:27;20.5;30.2
78475;SHT31;67766;51.964;5.660;2023-05-02T11:12:58;20.6;29.1
78475;SHT31;67766;51.964;5.660;2023-05-02T11:15:56;20.7;28.4
78475;SHT31;67766;51.964;5.660;2023-05-02T11:18:26;20.8;27.3
78475;SHT31;67766;51.964;5.660;2023-05-02T11:26:47;20.6;27.3
78475;SHT31;67766;51.964;5.660;2023-05-02T11:29:52;20.5;29.0
78475;SHT31;67766;51.964;5.660;2023-05-02T11:32:23;20.5;27.4
78475;SHT31;67766;51.964;5.660;2023-05-02T11:34:53;20.4;27.8
78475;SHT31;67766;51.964;5.660;2023-05-02T11:37:23;20.3;29.1
78475;SHT31;67766;51.964;5.660;2023-05-02T11:40:10;20.3;29.2
78475;SHT31;67766;51.964;5.660;2023-05-02T11:42:40;20.3;29.2
78475;SHT31;67766;51.964;5.660;2023-05-02T11:45:11;20.3;29.1
78475;SHT31;67766;51.964;5.660;2023-05-02T11:47:41;20.3;28.1
78475;SHT31;67766;51.964;5.660;2023-05-02T11:50:12;20.4;28.2
78475;SHT31;67766;51.964;5.660;2023-05-02T11:52:44;20.5;29.0
78475;SHT31;67766;51.964;5.660;2023-05-02T11:55:14;20.5;28.6
78475;SHT31;67766;51.964;5.660;2023-05-02T11:57:46;20.6;29.3
78475;SHT31;67766;51.964;5.660;2023-05-02T12:00:16;20.6;28.0
78475;SHT31;67766;51.964;5.660;2023-05-02T12:02:46;20.7;28.4
78475;SHT31;67766;51.964;5.660;2023-05-02T12:05:27;20.7;28.4
78475;SHT31;67766;51.964;5.660;2023-05-02T12:07:58;20.7;27.9
78475;SHT31;67766;51.964;5.660;2023-05-02T12:10:37;20.7;27.7
78475;SHT31;67766;51.964;5.660;2023-05-02T12:13:06;20.7;28.1
78475;SHT31;67766;51.964;5.660;2023-05-02T12:15:37;20.7;28.6
78475;SHT31;67766;51.964;5.660;2023-05-02T12:18:08;20.7;27.7
78475;SHT31;67766;51.964;5.660;2023-05-02T12:20:38;20.8;27.5
78475;SHT31;67766;51.964;5.660;2023-05-02T12:23:10;20.8;27.5
78475;SHT31;67766;51.964;5.660;2023-05-02T12:25:41;20.7;27.3
78475;SHT31;67766;51.964;5.660;2023-05-02T12:28:12;20.7;27.1
78475;SHT31;67766;51.964;5.660;2023-05-02T12:30:41;20.6;27.2
78475;SHT31;67766;51.964;5.660;2023-05-02T12:33:11;20.6;28.4
78475;SHT31;67766;51.964;5.660;2023-05-02T12:35:43;20.5;29.8
78475;SHT31;67766;51.964;5.660;2023-05-02T12:38:17;20.5;28.5
78475;SHT31;67766;51.964;5.660;2023-05-02T12:40:51;20.5;29.3
78475;SHT31;67766;51.964;5.660;2023-05-02T12:43:24;20.6;29.9
78475;SHT31;67766;51.964;5.660;2023-05-02T12:46:09;20.6;29.4
78475;SHT31;67766;51.964;5.660;2023-05-02T12:48:39;20.6;28.2
78475;SHT31;67766;51.964;5.660;2023-05-02T12:51:22;20.6;28.2
78475;SHT31;67766;51.964;5.660;2023-05-02T12:53:54;20.5;29.7
78475;SHT31;67766;51.964;5.660;2023-05-02T12:56:23;20.5;29.3
78475;SHT31;67766;51.964;5.660;2023-05-02T12:58:58;20.5;30.5
78475;SHT31;67766;51.964;5.660;2023-05-02T13:01:32;20.5;28.6
78475;SHT31;67766;51.964;5.660;2023-05-02T13:04:02;20.4;28.5
78475;SHT31;67766;51.964;5.660;2023-05-02T13:06:32;20.4;28.4
78475;SHT31;67766;51.964;5.660;2023-05-02T13:09:04;20.4;28.4
78475;SHT31;67766;51.964;5.660;2023-05-02T13:11:34;20.4;29.6
78475;SHT31;67766;51.964;5.660;2023-05-02T13:14:06;20.4;29.9
78475;SHT31;67766;51.964;5.660;2023-05-02T13:16:38;20.4;28.3
78475;SHT31;67766;51.964;5.660;2023-05-02T13:19:07;20.4;29.5
78475;SHT31;67766;51.964;5.660;2023-05-02T13:21:37;20.4;29.3
78475;SHT31;67766;51.964;5.660;2023-05-02T13:24:09;20.4;29.4
78475;SHT31;67766;51.964;5.660;2023-05-02T13:26:39;20.4;30.4
78475;SHT31;67766;51.964;5.660;2023-05-02T13:29:09;20.4;29.1
78475;SHT31;67766;51.964;5.660;2023-05-02T13:31:39;20.4;28.4
78475;SHT31;67766;51.964;5.660;2023-05-02T13:34:10;20.4;28.5
78475;SHT31;67766;51.964;5.660;2023-05-02T13:36:43;20.3;29.6
78475;SHT31;67766;51.964;5.660;2023-05-02T13:39:12;20.3;28.0
78475;SHT31;67766;51.964;5.660;2023-05-02T13:41:42;20.3;29.5
78475;SHT31;67766;51.964;5.660;2023-05-02T13:44:12;20.2;32.2
78475;SHT31;67766;51.964;5.660;2023-05-02T13:46:42;20.2;31.3
78475;SHT31;67766;51.964;5.660;2023-05-02T13:49:12;20.2;30.4
78475;SHT31;67766;51.964;5.660;2023-05-02T13:51:41;20.3;29.8
78475;SHT31;67766;51.964;5.660;2023-05-02T13:54:11;20.3;29.6
78475;SHT31;67766;51.964;5.660;2023-05-02T13:56:42;20.3;28.6
78475;SHT31;67766;51.964;5.660;2023-05-02T13:59:12;20.3;29.1
78475;SHT31;67766;51.964;5.660;2023-05-02T14:01:42;20.3;29.8
78475;SHT31;67766;51.964;5.660;2023-05-02T14:04:11;20.3;29.7
78475;SHT31;67766;51.964;5.660;2023-05-02T14:06:41;20.3;29.6
78475;SHT31;67766;51.964;5.660;2023-05-02T14:09:10;20.3;28.6
78475;SHT31;67766;51.964;5.660;2023-05-02T14:11:41;20.3;29.7
78475;SHT31;67766;51.964;5.660;2023-05-02T14:14:15;20.3;30.4
78475;SHT31;67766;51.964;5.660;2023-05-02T14:16:45;20.3;30.4
78475;SHT31;67766;51.964;5.660;2023-05-02T14:19:15;20.3;30.3
78475;SHT31;67766;51.964;5.660;2023-05-02T14:21:44;20.3;30.8
78475;SHT31;67766;51.964;5.660;2023-05-02T14:24:14;20.3;30.1
78475;SHT31;67766;51.964;5.660;2023-05-02T14:26:44;20.3;29.7
78475;SHT31;67766;51.964;5.660;2023-05-02T14:29:14;20.3;30.1
78475;SHT31;67766;51.964;5.660;2023-05-02T14:31:44;20.3;29.4
78475;SHT31;67766;51.964;5.660;2023-05-02T14:34:14;20.3;29.4
78475;SHT31;67766;51.964;5.660;2023-05-02T14:36:44;20.3;29.4
78475;SHT31;67766;51.964;5.660;2023-05-02T14:39:14;20.3;29.4
78475;SHT31;67766;51.964;5.660;2023-05-02T14:41:46;20.3;29.7
78475;SHT31;67766;51.964;5.660;2023-05-02T14:44:15;20.3;29.3
78475;SHT31;67766;51.964;5.660;2023-05-02T14:46:45;20.3;29.1
78475;SHT31;67766;51.964;5.660;2023-05-02T14:49:14;20.2;29.5
78475;SHT31;67766;51.964;5.660;2023-05-02T14:51:46;20.2;30.4
78475;SHT31;67766;51.964;5.660;2023-05-02T14:54:16;20.2;30.4
78475;SHT31;67766;51.964;5.660;2023-05-02T14:56:46;20.2;30.2
78475;SHT31;67766;51.964;5.660;2023-05-02T14:59:18;20.2;30.9
78475;SHT31;67766;51.964;5.660;2023-05-02T15:01:50;20.2;30.1
78475;SHT31;67766;51.964;5.660;2023-05-02T15:04:20;20.2;30.2
78475;SHT31;67766;51.964;5.660;2023-05-02T15:06:50;20.2;30.7
78475;SHT31;67766;51.964;5.660;2023-05-02T15:09:20;20.1;31.0
78475;SHT31;67766;51.964;5.660;2023-05-02T15:11:52;20.1;30.5
78475;SHT31;67766;51.964;5.660;2023-05-02T15:14:22;20.1;30.1
78475;SHT31;67766;51.964;5.660;2023-05-02T15:16:54;20.1;29.6
78475;SHT31;67766;51.964;5.660;2023-05-02T15:19:24;20.0;29.4
78475;SHT31;67766;51.964;5.660;2023-05-02T15:21:54;19.9;29.5
78475;SHT31;67766;51.964;5.660;2023-05-02T15:24:26;19.8;30.1
78475;SHT31;67766;51.964;5.660;2023-05-02T15:26:57;19.7;30.9
78475;SHT31;67766;51.964;5.660;2023-05-02T15:29:29;19.6;31.5
78475;SHT31;67766;51.964;5.660;2023-05-02T15:31:58;19.6;31.7
78475;SHT31;67766;51.964;5.660;2023-05-02T15:34:28;19.6;31.2
78475;SHT31;67766;51.964;5.660;2023-05-02T15:36:59;19.6;32.0
78475;SHT31;67766;51.964;5.660;2023-05-02T15:39:29;19.6;31.8
78475;SHT31;67766;51.964;5.660;2023-05-02T15:42:01;19.6;32.3
78475;SHT31;67766;51.964;5.660;2023-05-02T15:44:34;19.6;32.1
78475;SHT31;67766;51.964;5.660;2023-05-02T15:47:04;19.6;31.6
78475;SHT31;67766;51.964;5.660;2023-05-02T15:49:35;19.6;31.9
78475;SHT31;67766;51.964;5.660;2023-05-02T15:52:04;19.6;32.2
78475;SHT31;67766;51.964;5.660;2023-05-02T15:54:34;19.6;31.5
78475;SHT31;67766;51.964;5.660;2023-05-02T15:57:05;19.6;31.2
78475;SHT31;67766;51.964;5.660;2023-05-02T15:59:35;19.6;31.9
78475;SHT31;67766;51.964;5.660;2023-05-02T16:02:05;19.6;31.1
78475;SHT31;67766;51.964;5.660;2023-05-02T16:04:35;19.6;31.8
78475;SHT31;67766;51.964;5.660;2023-05-02T16:07:05;19.6;31.5
78475;SHT31;67766;51.964;5.660;2023-05-02T16:09:34;19.6;29.6
78475;SHT31;67766;51.964;5.660;2023-05-02T16:12:06;19.6;29.3
78475;SHT31;67766;51.964;5.660;2023-05-02T16:14:38;19.5;30.6
78475;SHT31;67766;51.964;5.660;2023-05-02T16:17:07;19.4;31.1
78475;SHT31;67766;51.964;5.660;2023-05-02T16:19:39;19.3;31.1
78475;SHT31;67766;51.964;5.660;2023-05-02T16:22:10;19.3;30.8
78475;SHT31;67766;51.964;5.660;2023-05-02T16:24:40;19.3;31.7
78475;SHT31;67766;51.964;5.660;2023-05-02T16:27:09;19.2;31.5
78475;SHT31;67766;51.964;5.660;2023-05-02T16:29:39;19.2;32.1
78475;SHT31;67766;51.964;5.660;2023-05-02T16:32:09;19.2;31.6
78475;SHT31;67766;51.964;5.660;2023-05-02T16:34:38;19.2;31.9
78475;SHT31;67766;51.964;5.660;2023-05-02T16:37:10;19.2;30.3